Time,TemperatureF,DewpointF,PressureIn,WindDirection,WindDirectionDegrees,WindSpeedMPH,WindSpeedGustMPH,Humidity,HourlyPrecipIn,Conditions,Clouds,dailyrainin,SoftwareType,DateUTC
2013-08-09 00:11:00,69.0,67.0,-100.00,WSW,255,0.0,3.0,92,0.00,,,-99.99,,2013-08-09 05:11:00,
2013-08-09 00:22:00,69.0,67.0,-100.00,WSW,255,1.0,2.0,92,0.00,,,-99.99,,2013-08-09 05:22:00,
2013-08-09 00:32:00,69.0,67.0,-100.00,WSW,255,0.0,1.0,92,0.00,,,-99.99,,2013-08-09 05:32:00,
2013-08-09 00:43:00,69.0,67.0,-100.00,WSW,255,1.0,1.0,92,0.00,,,-99.99,,2013-08-09 05:43:00,
2013-08-09 00:52:00,69.0,67.0,-100.00,WSW,255,0.0,1.0,92,0.00,,,-99.99,,2013-08-09 05:52:00,
2013-08-09 01:01:00,69.0,67.0,-100.00,WSW,255,0.0,1.0,92,0.00,,,-99.99,,2013-08-09 06:01:00,
2013-08-09 01:11:00,69.0,67.0,-100.00,West,265,2.0,2.0,92,0.00,,,-99.99,,2013-08-09 06:11:00,
2013-08-09 01:22:00,69.0,67.0,-100.00,WNW,295,1.0,3.0,93,0.00,,,-99.99,,2013-08-09 06:22:00,
2013-08-09 01:32:00,69.0,67.0,-100.00,WNW,295,1.0,3.0,93,0.00,,,-99.99,,2013-08-09 06:32:00,
2013-08-09 01:43:00,68.0,66.0,-100.00,WNW,295,1.0,4.0,93,0.00,,,-99.99,,2013-08-09 06:43:00,
2013-08-09 01:52:00,68.0,66.0,-100.00,WNW,290,0.0,2.0,93,0.00,,,-99.99,,2013-08-09 06:52:00,
2013-08-09 02:01:00,68.0,66.0,-100.00,WNW,290,0.0,2.0,93,0.00,,,-99.99,,2013-08-09 07:01:00,
2013-08-09 02:12:00,67.0,66.0,-100.00,WNW,290,2.0,2.0,93,0.00,,,-99.99,,2013-08-09 07:12:00,
2013-08-09 02:22:00,67.0,66.0,-100.00,NW,305,3.0,3.0,93,0.00,,,-99.99,,2013-08-09 07:22:00,
2013-08-09 02:33:00,67.0,66.0,-100.00,NW,305,3.0,3.0,93,0.00,,,-99.99,,2013-08-09 07:33:00,
2013-08-09 02:43:00,67.0,65.0,-100.00,WNW,300,3.0,5.0,94,0.00,,,-99.99,,2013-08-09 07:43:00,
2013-08-09 03:02:00,67.0,65.0,-100.00,WNW,290,2.0,4.0,94,0.00,,,-99.99,,2013-08-09 08:02:00,
2013-08-09 03:12:00,67.0,65.0,-100.00,NW,320,4.0,5.0,94,0.00,,,-99.99,,2013-08-09 08:12:00,
2013-08-09 03:32:00,67.0,65.0,-100.00,WNW,300,3.0,5.0,94,0.00,,,-99.99,,2013-08-09 08:32:00,
2013-08-09 03:43:00,67.0,65.0,-100.00,West,280,4.0,4.0,94,0.00,,,-99.99,,2013-08-09 08:43:00,
2013-08-09 04:02:00,67.0,65.0,-100.00,WNW,290,0.0,2.0,94,0.00,,,-99.99,,2013-08-09 09:02:00,
2013-08-09 04:12:00,67.0,65.0,-100.00,SW,235,1.0,2.0,94,0.00,,,-99.99,,2013-08-09 09:12:00,
2013-08-09 04:32:00,67.0,65.0,-100.00,SW,235,0.0,1.0,94,0.00,,,-99.99,,2013-08-09 09:32:00,
2013-08-09 04:43:00,67.0,65.0,-100.00,SW,235,1.0,1.0,94,0.00,,,-99.99,,2013-08-09 09:43:00,
2013-08-09 04:52:00,66.0,65.0,-100.00,SW,235,0.0,0.0,94,0.00,,,-99.99,,2013-08-09 09:52:00,
2013-08-09 05:01:00,67.0,65.0,-100.00,SW,235,0.0,1.0,94,0.00,,,-99.99,,2013-08-09 10:01:00,
2013-08-09 05:22:00,67.0,65.0,-100.00,NW,310,4.0,4.0,94,0.00,,,-99.99,,2013-08-09 10:22:00,
2013-08-09 05:32:00,67.0,65.0,-100.00,WNW,300,3.0,4.0,94,0.00,,,-99.99,,2013-08-09 10:32:00,
2013-08-09 05:43:00,66.0,64.0,-100.00,NW,305,0.0,3.0,94,0.00,,,-99.99,,2013-08-09 10:43:00,
2013-08-09 06:22:00,66.0,64.0,-100.00,WNW,300,1.0,2.0,94,0.00,,,-99.99,,2013-08-09 11:22:00,
2013-08-09 06:33:00,66.0,64.0,-100.00,WNW,300,1.0,2.0,94,0.00,,,-99.99,,2013-08-09 11:33:00,
2013-08-09 06:43:00,66.0,64.0,-100.00,WNW,295,4.0,4.0,94,0.00,,,-99.99,,2013-08-09 11:43:00,
2013-08-09 06:53:00,66.0,64.0,-100.00,West,275,2.0,2.0,94,0.00,,,-99.99,,2013-08-09 11:53:00,
2013-08-09 07:12:00,66.0,64.0,-100.00,WNW,285,2.0,3.0,94,0.00,,,-99.99,,2013-08-09 12:12:00,
2013-08-09 07:22:00,66.0,65.0,-100.00,NNW,330,3.0,5.0,94,0.00,,,-99.99,,2013-08-09 12:22:00,
2013-08-09 07:32:00,67.0,65.0,-100.00,WNW,290,3.0,4.0,94,0.00,,,-99.99,,2013-08-09 12:32:00,
2013-08-09 07:43:00,67.0,66.0,-100.00,WNW,295,4.0,7.0,94,0.00,,,-99.99,,2013-08-09 12:43:00,
2013-08-09 08:01:00,68.0,66.0,-100.00,WNW,295,4.0,4.0,94,0.00,,,-99.99,,2013-08-09 13:01:00,
2013-08-09 08:12:00,69.0,67.0,-100.00,West,275,3.0,4.0,92,0.00,,,-99.99,,2013-08-09 13:12:00,
2013-08-09 08:23:00,70.0,66.0,-100.00,WNW,300,3.0,5.0,87,0.00,,,-99.99,,2013-08-09 13:23:00,
2013-08-09 08:32:00,70.0,66.0,-100.00,WNW,300,3.0,5.0,87,0.00,,,-99.99,,2013-08-09 13:32:00,
2013-08-09 08:43:00,73.0,65.0,-100.00,NW,320,2.0,4.0,76,0.00,,,-99.99,,2013-08-09 13:43:00,
2013-08-09 08:52:00,73.0,65.0,-100.00,NW,320,2.0,4.0,76,0.00,,,-99.99,,2013-08-09 13:52:00,
2013-08-09 09:02:00,73.0,64.0,-100.00,NNW,330,2.0,6.0,74,0.00,,,-99.99,,2013-08-09 14:02:00,
2013-08-09 09:11:00,74.0,65.0,-100.00,WNW,300,4.0,6.0,73,0.00,,,-99.99,,2013-08-09 14:11:00,
2013-08-09 09:33:00,74.0,65.0,-100.00,NW,305,5.0,7.0,71,0.00,,,-99.99,,2013-08-09 14:33:00,
2013-08-09 09:43:00,75.0,65.0,-100.00,NW,310,4.0,7.0,71,0.00,,,-99.99,,2013-08-09 14:43:00,
2013-08-09 10:02:00,75.0,65.0,-100.00,NW,305,6.0,11.0,71,0.00,,,-99.99,,2013-08-09 15:02:00,
2013-08-09 10:11:00,75.0,65.0,-100.00,West,280,4.0,6.0,69,0.00,,,-99.99,,2013-08-09 15:11:00,
2013-08-09 10:22:00,75.0,65.0,-100.00,West,280,4.0,6.0,69,0.00,,,-99.99,,2013-08-09 15:22:00,
2013-08-09 10:33:00,76.0,64.0,-100.00,West,275,4.0,6.0,67,0.00,,,-99.99,,2013-08-09 15:33:00,
2013-08-09 10:44:00,76.0,64.0,-100.00,NW,315,4.0,7.0,64,0.00,,,-99.99,,2013-08-09 15:44:00,
2013-08-09 10:53:00,77.0,63.0,-100.00,NW,310,3.0,7.0,62,0.00,,,-99.99,,2013-08-09 15:53:00,
2013-08-09 11:11:00,79.0,63.0,-100.00,NW,310,1.0,3.0,58,0.00,,,-99.99,,2013-08-09 16:11:00,
2013-08-09 11:22:00,80.0,63.0,-100.00,North,350,2.0,2.0,56,0.00,,,-99.99,,2013-08-09 16:22:00,
2013-08-09 11:32:00,81.0,62.0,-100.00,WNW,300,2.0,4.0,53,0.00,,,-99.99,,2013-08-09 16:32:00,
2013-08-09 11:43:00,81.0,62.0,-100.00,NNW,345,3.0,4.0,51,0.00,,,-99.99,,2013-08-09 16:43:00,
2013-08-09 12:02:00,81.0,62.0,-100.00,North,10,2.0,3.0,52,0.00,,,-99.99,,2013-08-09 17:02:00,
2013-08-09 12:11:00,81.0,62.0,-100.00,NW,320,2.0,4.0,52,0.00,,,-99.99,,2013-08-09 17:11:00,
2013-08-09 12:22:00,82.0,61.0,-100.00,NW,315,3.0,6.0,49,0.00,,,-99.99,,2013-08-09 17:22:00,
2013-08-09 12:33:00,82.0,61.0,-100.00,NW,315,3.0,6.0,49,0.00,,,-99.99,,2013-08-09 17:33:00,
2013-08-09 12:43:00,83.0,62.0,-100.00,NNW,330,3.0,5.0,48,0.00,,,-99.99,,2013-08-09 17:43:00,
2013-08-09 12:52:00,85.0,62.0,-100.00,NNW,345,0.0,3.0,46,0.00,,,-99.99,,2013-08-09 17:52:00,
2013-08-09 13:01:00,85.0,62.0,-100.00,NNW,345,0.0,3.0,46,0.00,,,-99.99,,2013-08-09 18:01:00,
2013-08-09 13:11:00,83.0,62.0,-100.00,NNW,340,3.0,7.0,49,0.00,,,-99.99,,2013-08-09 18:11:00,
2013-08-09 13:22:00,83.0,62.0,-100.00,NNW,330,2.0,6.0,49,0.00,,,-99.99,,2013-08-09 18:22:00,
2013-08-09 13:32:00,83.0,62.0,-100.00,NNW,330,2.0,6.0,49,0.00,,,-99.99,,2013-08-09 18:32:00,
2013-08-09 13:43:00,83.0,62.0,-100.00,NNW,335,3.0,6.0,50,0.00,,,-99.99,,2013-08-09 18:43:00,
2013-08-09 13:53:00,83.0,62.0,-100.00,NNW,335,3.0,6.0,50,0.00,,,-99.99,,2013-08-09 18:53:00,
2013-08-09 14:02:00,83.0,63.0,-100.00,NW,320,2.0,4.0,50,0.00,,,-99.99,,2013-08-09 19:02:00,
2013-08-09 14:11:00,84.0,63.0,-100.00,NW,320,3.0,6.0,50,0.00,,,-99.99,,2013-08-09 19:11:00,
2013-08-09 14:22:00,83.0,63.0,-100.00,NW,305,2.0,4.0,51,0.00,,,-99.99,,2013-08-09 19:22:00,
2013-08-09 14:32:00,83.0,63.0,-100.00,NW,305,2.0,4.0,51,0.00,,,-99.99,,2013-08-09 19:32:00,
2013-08-09 14:43:00,84.0,63.0,-100.00,North,5,4.0,7.0,49,0.00,,,-99.99,,2013-08-09 19:43:00,
2013-08-09 15:02:00,84.0,63.0,-100.00,WNW,300,1.0,4.0,49,0.00,,,-99.99,,2013-08-09 20:02:00,
2013-08-09 15:11:00,85.0,63.0,-100.00,NW,315,2.0,4.0,48,0.00,,,-99.99,,2013-08-09 20:11:00,
2013-08-09 15:32:00,86.0,64.0,-100.00,NW,320,3.0,4.0,47,0.00,,,-99.99,,2013-08-09 20:32:00,
2013-08-09 15:43:00,85.0,62.0,-100.00,NW,320,7.0,9.0,46,0.00,,,-99.99,,2013-08-09 20:43:00,
2013-08-09 15:52:00,85.0,62.0,-100.00,NW,320,7.0,9.0,46,0.00,,,-99.99,,2013-08-09 20:52:00,
2013-08-09 16:01:00,85.0,62.0,-100.00,NW,315,2.0,6.0,47,0.00,,,-99.99,,2013-08-09 21:01:00,
2013-08-09 16:12:00,85.0,62.0,-100.00,WNW,295,6.0,9.0,46,0.00,,,-99.99,,2013-08-09 21:12:00,
2013-08-09 16:33:00,84.0,63.0,-100.00,NW,320,6.0,10.0,48,0.00,,,-99.99,,2013-08-09 21:33:00,
2013-08-09 16:43:00,78.0,65.0,-100.00,North,350,11.0,15.0,65,0.00,,,-99.99,,2013-08-09 21:43:00,
2013-08-09 16:52:00,76.0,65.0,-100.00,North,10,9.0,14.0,68,0.00,,,-99.99,,2013-08-09 21:52:00,
2013-08-09 17:01:00,76.0,67.0,-100.00,North,5,7.0,11.0,71,0.03,,,-99.99,,2013-08-09 22:01:00,
2013-08-09 17:11:00,75.0,67.0,-100.00,North,0,7.0,11.0,77,0.00,,,-99.99,,2013-08-09 22:11:00,
2013-08-09 17:32:00,75.0,67.0,-100.00,NNW,345,7.0,9.0,76,0.00,,,-99.99,,2013-08-09 22:32:00,
2013-08-09 17:42:00,76.0,67.0,-100.00,North,355,7.0,9.0,73,0.00,,,-99.99,,2013-08-09 22:42:00,
2013-08-09 17:52:00,77.0,67.0,-100.00,NNW,345,6.0,9.0,72,0.00,,,-99.99,,2013-08-09 22:52:00,
2013-08-09 18:11:00,78.0,67.0,-100.00,North,5,5.0,7.0,68,0.00,,,-99.99,,2013-08-09 23:11:00,
2013-08-09 18:22:00,78.0,67.0,-100.00,North,5,5.0,7.0,68,0.00,,,-99.99,,2013-08-09 23:22:00,
2013-08-09 18:32:00,78.0,67.0,-100.00,NNW,340,5.0,7.0,68,0.00,,,-99.99,,2013-08-09 23:32:00,
2013-08-09 18:43:00,78.0,67.0,-100.00,NW,325,4.0,7.0,68,0.00,,,-99.99,,2013-08-09 23:43:00,
2013-08-09 18:52:00,78.0,67.0,-100.00,NNW,345,4.0,6.0,69,0.00,,,-99.99,,2013-08-09 23:52:00,
2013-08-09 19:01:00,78.0,67.0,-100.00,NNW,345,4.0,6.0,69,0.00,,,-99.99,,2013-08-10 00:01:00,
2013-08-09 19:11:00,78.0,67.0,-100.00,NNW,345,6.0,9.0,69,0.00,,,-99.99,,2013-08-10 00:11:00,
2013-08-09 19:22:00,77.0,67.0,-100.00,North,355,6.0,9.0,69,0.00,,,-99.99,,2013-08-10 00:22:00,
2013-08-09 19:33:00,77.0,67.0,-100.00,North,355,6.0,9.0,69,0.00,,,-99.99,,2013-08-10 00:33:00,
2013-08-09 19:43:00,77.0,65.0,-100.00,North,5,6.0,9.0,66,0.00,,,-99.99,,2013-08-10 00:43:00,
2013-08-09 19:52:00,77.0,65.0,-100.00,North,5,6.0,9.0,66,0.00,,,-99.99,,2013-08-10 00:52:00,
2013-08-09 20:01:00,76.0,64.0,-100.00,NNW,345,4.0,7.0,65,0.00,,,-99.99,,2013-08-10 01:01:00,
2013-08-09 20:11:00,76.0,64.0,-100.00,NNW,345,4.0,7.0,65,0.00,,,-99.99,,2013-08-10 01:11:00,
2013-08-09 20:32:00,76.0,63.0,-100.00,NNW,330,4.0,7.0,65,0.00,,,-99.99,,2013-08-10 01:32:00,
2013-08-09 20:42:00,75.0,63.0,-100.00,NNW,330,4.0,6.0,66,0.00,,,-99.99,,2013-08-10 01:42:00,
2013-08-09 21:03:00,74.0,63.0,-100.00,NNW,335,3.0,6.0,69,0.00,,,-99.99,,2013-08-10 02:03:00,
2013-08-09 21:32:00,73.0,65.0,-100.00,NW,310,2.0,4.0,75,0.00,,,-99.99,,2013-08-10 02:32:00,
2013-08-09 21:42:00,72.0,65.0,-100.00,NW,320,3.0,4.0,77,0.00,,,-99.99,,2013-08-10 02:42:00,
2013-08-09 21:52:00,72.0,64.0,-100.00,North,350,3.0,5.0,75,0.00,,,-99.99,,2013-08-10 02:52:00,
2013-08-09 22:32:00,72.0,61.0,-100.00,North,350,7.0,9.0,68,0.00,,,-99.99,,2013-08-10 03:32:00,
2013-08-09 22:42:00,72.0,61.0,-100.00,North,350,6.0,9.0,67,0.00,,,-99.99,,2013-08-10 03:42:00,
2013-08-09 22:52:00,72.0,61.0,-100.00,North,355,4.0,7.0,67,0.00,,,-99.99,,2013-08-10 03:52:00,
2013-08-09 23:12:00,69.0,62.0,-100.00,WNW,295,4.0,4.0,79,0.00,,,-99.99,,2013-08-10 04:12:00,
2013-08-09 23:22:00,69.0,62.0,-100.00,WNW,295,4.0,4.0,79,0.00,,,-99.99,,2013-08-10 04:22:00,
2013-08-09 23:32:00,68.0,63.0,-100.00,WNW,300,4.0,5.0,84,0.00,,,-99.99,,2013-08-10 04:32:00,
2013-08-09 23:43:00,68.0,63.0,-100.00,NW,305,6.0,6.0,85,0.00,,,-99.99,,2013-08-10 04:43:00,